Time;durP1;ratioP1;P1;durP2;ratioP2;P2;SDS_P1;SDS_P2;PMS_P1;PMS_P2;Temp;Humidity;BMP_temperature;BMP_pressure;BME280_temperature;BME280_humidity;BME280_pressure;Samples;Min_cycle;Max_cycle;Signal;HPM_P1;HPM_P2
2023/05/08 00:00:24;;;;;;;13.88;12.38;;;12.10;99.90;;;;;;5131543;27;20109;-50
2023/05/08 00:02:50;;;;;;;14.13;12.57;;;11.20;99.90;;;;;;5130972;27;20050;-47
2023/05/08 00:05:16;;;;;;;15.95;12.65;;;11.10;99.90;;;;;;5132671;27;20041;-49
2023/05/08 00:07:42;;;;;;;14.93;13.43;;;11.00;99.90;;;;;;5131730;27;20047;-46
2023/05/08 00:10:09;;;;;;;14.32;12.82;;;10.90;99.90;;;;;;5114821;27;20525;-49
2023/05/08 00:12:35;;;;;;;15.10;12.93;;;11.00;99.90;;;;;;5112925;27;20043;-50
2023/05/08 00:15:02;;;;;;;14.80;12.45;;;10.90;99.90;;;;;;5132327;27;20043;-46
2023/05/08 00:17:28;;;;;;;16.92;13.73;;;10.60;99.90;;;;;;5131707;27;20039;-50
2023/05/08 00:19:54;;;;;;;14.27;12.52;;;9.70;99.90;;;;;;5132058;27;20046;-49
2023/05/08 00:22:20;;;;;;;15.57;12.90;;;10.70;99.90;;;;;;5115841;27;20074;-51
2023/05/08 00:24:46;;;;;;;15.38;13.77;;;10.80;99.90;;;;;;5131673;27;20180;-51
2023/05/08 00:27:12;;;;;;;14.73;13.07;;;10.60;99.90;;;;;;5132964;27;20034;-47
2023/05/08 00:29:39;;;;;;;13.88;12.43;;;10.70;99.90;;;;;;5116127;27;20054;-48
2023/05/08 00:32:08;;;;;;;14.02;12.52;;;10.50;99.90;;;;;;5137074;27;20046;-51
2023/05/08 00:34:34;;;;;;;15.63;13.43;;;10.60;99.90;;;;;;5135376;27;20050;-51
2023/05/08 00:37:00;;;;;;;15.63;13.93;;;10.50;99.90;;;;;;5116021;27;20035;-48
2023/05/08 00:39:25;;;;;;;15.48;13.18;;;10.50;99.90;;;;;;5117885;27;20708;-50
2023/05/08 00:41:51;;;;;;;15.32;13.35;;;11.40;99.90;;;;;;5136177;27;20689;-49
2023/05/08 00:44:17;;;;;;;16.17;13.57;;;10.60;99.90;;;;;;5117769;27;20050;-51
2023/05/08 00:46:44;;;;;;;16.27;13.57;;;12.50;99.90;;;;;;5115555;27;20883;-50
2023/05/08 00:49:13;;;;;;;16.25;13.82;;;10.50;99.90;;;;;;5135381;27;20167;-49
2023/05/08 00:51:49;;;;;;;20.15;14.07;;;10.40;99.90;;;;;;5137086;27;20141;-49
2023/05/08 00:54:15;;;;;;;17.50;15.60;;;10.30;99.90;;;;;;5135452;27;20372;-50
2023/05/08 00:56:42;;;;;;;16.67;14.80;;;10.40;99.90;;;;;;5134671;27;20055;-50
2023/05/08 00:59:10;;;;;;;18.83;15.25;;;12.30;99.90;;;;;;5135537;27;20644;-49
2023/05/08 01:01:37;;;;;;;16.85;14.95;;;10.20;99.90;;;;;;5134441;27;20046;-50
2023/05/08 01:04:03;;;;;;;16.08;14.38;;;10.20;99.90;;;;;;5133893;27;20129;-50
2023/05/08 01:06:29;;;;;;;17.23;15.18;;;10.40;99.90;;;;;;5134983;27;20039;-50
2023/05/08 01:08:55;;;;;;;16.73;14.68;;;10.30;99.90;;;;;;5135151;27;20099;-46
2023/05/08 01:11:38;;;;;;;17.23;14.88;;;10.30;99.90;;;;;;5136363;27;20083;-51
2023/05/08 01:14:24;;;;;;;18.02;15.60;;;10.10;99.90;;;;;;5134420;27;20911;-51
2023/05/08 01:17:09;;;;;;;15.85;14.25;;;10.40;99.90;;;;;;5134587;27;20035;-50
2023/05/08 01:19:56;;;;;;;17.00;15.20;;;10.20;99.90;;;;;;5133634;27;20047;-51
2023/05/08 01:22:48;;;;;;;16.70;14.68;;;10.20;99.90;;;;;;5137028;27;20053;-50
2023/05/08 01:25:20;;;;;;;19.80;15.93;;;10.20;99.90;;;;;;5134470;27;20193;-49
2023/05/08 01:28:14;;;;;;;15.88;14.20;;;10.20;99.90;;;;;;5133525;27;20530;-48
2023/05/08 01:30:57;;;;;;;18.23;15.63;;;10.20;99.90;;;;;;5134257;27;20049;-47
2023/05/08 01:33:44;;;;;;;18.52;15.40;;;10.10;99.90;;;;;;5134884;27;20078;-49
2023/05/08 01:36:35;;;;;;;20.33;15.68;;;10.10;99.90;;;;;;5134962;27;20047;-50
2023/05/08 01:39:30;;;;;;;16.73;14.85;;;9.90;99.90;;;;;;5134804;27;20050;-51
2023/05/08 01:42:01;;;;;;;22.10;15.52;;;10.20;99.90;;;;;;5133540;27;20078;-52
2023/05/08 01:44:40;;;;;;;17.63;15.20;;;9.90;99.90;;;;;;5135308;27;20042;-50
2023/05/08 01:47:08;;;;;;;18.45;15.57;;;10.00;99.90;;;;;;5134712;27;20170;-51
2023/05/08 01:50:03;;;;;;;18.75;15.90;;;9.90;99.90;;;;;;5134776;27;20697;-52
2023/05/08 01:52:34;;;;;;;17.05;15.30;;;9.80;99.90;;;;;;5137331;27;20047;-46
2023/05/08 01:55:08;;;;;;;17.50;15.70;;;9.90;99.90;;;;;;5134162;27;20053;-46
2023/05/08 01:57:39;;;;;;;18.38;14.82;;;9.90;99.90;;;;;;5134802;27;20043;-46
2023/05/08 02:00:06;;;;;;;19.10;17.10;;;9.90;99.90;;;;;;5134291;27;20046;-51
2023/05/08 02:02:34;;;;;;;16.83;15.02;;;9.80;99.90;;;;;;5134374;27;20234;-51
2023/05/08 02:05:03;;;;;;;17.45;15.35;;;9.90;99.90;;;;;;5134897;27;20429;-47
2023/05/08 02:07:30;;;;;;;17.42;15.15;;;10.00;99.90;;;;;;5134649;27;20051;-47
2023/05/08 02:09:58;;;;;;;17.05;15.25;;;9.90;99.90;;;;;;5134048;27;20099;-47
2023/05/08 02:12:25;;;;;;;18.25;16.35;;;9.90;99.90;;;;;;5134817;27;20042;-47
2023/05/08 02:14:52;;;;;;;17.83;15.70;;;9.80;99.90;;;;;;5133344;27;20053;-49
2023/05/08 02:17:19;;;;;;;16.95;15.13;;;9.80;99.90;;;;;;5134841;27;20419;-51
2023/05/08 02:19:48;;;;;;;17.30;15.52;;;9.80;99.90;;;;;;5134158;27;20123;-49
2023/05/08 02:22:17;;;;;;;17.38;15.57;;;9.80;99.90;;;;;;5134844;27;20476;-48
2023/05/08 02:24:44;;;;;;;18.50;15.75;;;9.70;99.90;;;;;;5131874;27;20046;-46
2023/05/08 02:27:12;;;;;;;22.02;16.70;;;9.70;99.90;;;;;;5133975;27;20035;-46
2023/05/08 02:29:38;;;;;;;19.17;16.92;;;9.80;99.90;;;;;;5131958;27;20042;-46
2023/05/08 02:32:07;;;;;;;20.42;16.63;;;9.70;99.90;;;;;;5133895;27;20282;-48
2023/05/08 02:34:34;;;;;;;19.80;17.63;;;9.70;99.90;;;;;;5131915;27;20047;-46
2023/05/08 02:37:02;;;;;;;18.33;15.82;;;9.70;99.90;;;;;;5134146;27;20053;-47
2023/05/08 02:39:30;;;;;;;17.25;15.45;;;9.50;99.90;;;;;;5133987;27;20042;-47
2023/05/08 02:41:56;;;;;;;17.90;16.00;;;9.60;99.90;;;;;;5132534;27;20095;-49
2023/05/08 02:44:22;;;;;;;18.95;16.52;;;9.70;99.90;;;;;;5132139;27;20056;-47
2023/05/08 02:47:14;;;;;;;21.98;16.40;;;9.50;99.90;;;;;;5131880;27;20357;-47
2023/05/08 02:50:01;;;;;;;19.05;15.75;;;9.60;99.90;;;;;;5132948;27;20091;-46
2023/05/08 02:52:39;;;;;;;21.92;16.70;;;9.60;99.90;;;;;;5135579;27;20053;-47
2023/05/08 02:55:18;;;;;;;18.98;16.98;;;9.60;99.90;;;;;;5132645;27;20061;-48
2023/05/08 02:57:50;;;;;;;20.80;16.80;;;9.60;99.90;;;;;;5133194;27;20202;-49
2023/05/08 03:00:21;;;;;;;18.67;16.77;;;9.50;99.90;;;;;;5133781;27;20081;-48
2023/05/08 03:02:51;;;;;;;18.35;16.30;;;9.60;99.90;;;;;;5132978;27;20042;-48
2023/05/08 03:05:23;;;;;;;20.45;17.23;;;9.30;99.90;;;;;;5132196;27;20527;-49
2023/05/08 03:07:53;;;;;;;20.90;17.08;;;9.20;99.90;;;;;;5133086;27;20117;-50
2023/05/08 03:10:21;;;;;;;19.45;17.30;;;9.30;99.90;;;;;;5134357;27;20223;-48
2023/05/08 03:12:50;;;;;;;20.10;16.88;;;9.50;99.90;;;;;;5132582;27;20197;-46
2023/05/08 03:15:32;;;;;;;18.63;16.50;;;9.60;99.90;;;;;;5133588;27;20175;-47
2023/05/08 03:18:06;;;;;;;19.23;17.10;;;9.30;99.90;;;;;;5132741;27;20038;-47
2023/05/08 03:20:37;;;;;;;19.50;17.45;;;9.30;99.90;;;;;;5132460;27;20039;-48
2023/05/08 03:23:05;;;;;;;19.00;16.88;;;9.10;99.90;;;;;;5134689;27;20062;-47
2023/05/08 03:25:32;;;;;;;19.27;17.05;;;9.40;99.90;;;;;;5131648;27;20046;-46
2023/05/08 03:27:59;;;;;;;18.45;15.85;;;8.70;99.90;;;;;;5133146;27;20173;-47
2023/05/08 03:30:26;;;;;;;19.08;17.13;;;9.10;99.90;;;;;;5131875;27;20043;-46
2023/05/08 03:32:53;;;;;;;19.52;16.42;;;9.00;99.90;;;;;;5132391;27;20593;-48
2023/05/08 03:35:21;;;;;;;22.80;19.02;;;9.00;99.90;;;;;;5131312;27;20050;-48
2023/05/08 03:37:47;;;;;;;19.42;17.10;;;9.00;99.90;;;;;;5132524;27;20078;-46
2023/05/08 03:40:13;;;;;;;18.98;16.98;;;9.10;99.90;;;;;;5130644;27;20039;-46
2023/05/08 03:42:40;;;;;;;19.48;17.38;;;9.10;99.90;;;;;;5116570;27;20542;-49
2023/05/08 03:45:08;;;;;;;19.92;17.63;;;9.10;99.90;;;;;;5114069;27;20049;-48
2023/05/08 03:47:36;;;;;;;22.63;18.20;;;9.00;99.90;;;;;;5132625;27;20070;-46
2023/05/08 03:50:02;;;;;;;20.50;18.30;;;9.00;99.90;;;;;;5130515;27;20418;-47
2023/05/08 03:52:29;;;;;;;22.02;17.92;;;9.00;99.90;;;;;;5133445;27;20566;-49
2023/05/08 03:54:54;;;;;;;22.70;18.23;;;9.00;99.90;;;;;;5131986;27;20487;-47
2023/05/08 03:57:21;;;;;;;22.98;18.52;;;9.00;99.90;;;;;;5115303;27;20091;-49
2023/05/08 03:59:53;;;;;;;21.20;17.98;;;8.90;99.90;;;;;;5130652;27;20150;-49
2023/05/08 04:02:42;;;;;;;20.38;18.13;;;8.80;99.90;;;;;;5114797;27;20043;-46
2023/05/08 04:05:38;;;;;;;21.70;18.33;;;8.90;99.90;;;;;;5134028;27;20192;-46
2023/05/08 04:08:19;;;;;;;22.77;18.13;;;8.90;99.90;;;;;;5136548;27;20062;-47
2023/05/08 04:11:03;;;;;;;20.70;17.73;;;8.90;99.90;;;;;;5134801;27;20570;-51
2023/05/08 04:13:31;;;;;;;21.60;18.27;;;8.90;99.90;;;;;;5135819;27;20035;-47
2023/05/08 04:16:06;;;;;;;22.85;19.13;;;8.90;99.90;;;;;;5135314;27;20838;-49
2023/05/08 04:18:36;;;;;;;20.38;18.02;;;8.80;99.90;;;;;;5136085;27;20047;-49
2023/05/08 04:21:07;;;;;;;21.98;18.48;;;8.80;99.90;;;;;;5135756;27;20042;-48
2023/05/08 04:23:35;;;;;;;20.73;17.08;;;9.00;99.90;;;;;;5136342;27;20499;-48
2023/05/08 04:26:02;;;;;;;20.63;18.42;;;9.10;99.90;;;;;;5117106;27;20046;-49
2023/05/08 04:28:28;;;;;;;22.83;17.80;;;8.90;99.90;;;;;;5135903;27;20194;-46
2023/05/08 04:30:56;;;;;;;23.45;17.95;;;9.00;99.90;;;;;;5135746;27;20058;-48
2023/05/08 04:33:22;;;;;;;21.35;17.13;;;9.10;99.90;;;;;;5136318;27;20121;-45
2023/05/08 04:35:49;;;;;;;19.17;17.17;;;9.20;99.90;;;;;;5116653;27;20047;-47
2023/05/08 04:38:14;;;;;;;21.08;17.83;;;9.20;99.90;;;;;;5136975;27;20078;-47
2023/05/08 04:40:40;;;;;;;20.77;16.77;;;9.20;99.90;;;;;;5135834;27;20152;-46
2023/05/08 04:43:06;;;;;;;17.95;16.05;;;9.10;99.90;;;;;;5134574;27;20449;-50
2023/05/08 04:45:32;;;;;;;18.58;16.60;;;9.30;99.90;;;;;;5135009;27;20039;-45
2023/05/08 04:47:57;;;;;;;18.48;16.05;;;9.40;99.90;;;;;;5134763;27;20149;-46
2023/05/08 04:50:23;;;;;;;17.00;15.15;;;9.50;99.90;;;;;;5133789;27;20044;-47
2023/05/08 04:52:49;;;;;;;18.20;16.05;;;9.70;99.90;;;;;;5135836;27;20035;-46
2023/05/08 04:55:15;;;;;;;19.20;15.55;;;9.60;99.90;;;;;;5134133;27;20053;-46
2023/05/08 04:57:40;;;;;;;18.35;16.45;;;9.50;99.90;;;;;;5136127;27;20046;-46
2023/05/08 05:00:07;;;;;;;17.00;13.90;;;9.90;99.90;;;;;;5133484;27;20095;-46
2023/05/08 05:02:32;;;;;;;17.05;15.25;;;10.00;99.90;;;;;;5116078;27;20381;-47
2023/05/08 05:05:00;;;;;;;16.60;14.35;;;10.30;99.90;;;;;;5133767;27;20053;-47
2023/05/08 05:07:25;;;;;;;16.65;14.93;;;10.40;99.90;;;;;;5134414;27;20916;-45
2023/05/08 05:09:51;;;;;;;16.88;13.77;;;10.60;99.90;;;;;;5134153;27;20129;-46
2023/05/08 05:12:17;;;;;;;15.20;13.70;;;10.60;99.90;;;;;;5134732;27;20146;-46
2023/05/08 05:14:42;;;;;;;18.15;13.93;;;10.80;99.90;;;;;;5133665;27;20066;-51
2023/05/08 05:17:08;;;;;;;14.65;13.00;;;10.90;99.90;;;;;;5132990;27;20054;-48
2023/05/08 05:19:34;;;;;;;17.60;13.00;;;11.00;99.90;;;;;;5135105;27;20047;-48
2023/05/08 05:22:00;;;;;;;14.52;12.77;;;11.30;99.90;;;;;;5136317;27;20042;-46
2023/05/08 05:24:25;;;;;;;14.38;12.52;;;11.30;99.90;;;;;;5134647;27;20038;-48
2023/05/08 05:26:51;;;;;;;14.20;12.70;;;11.30;99.90;;;;;;5134647;27;20083;-47
2023/05/08 05:29:17;;;;;;;12.27;10.98;;;11.50;99.90;;;;;;5116906;27;20026;-49
2023/05/08 05:31:42;;;;;;;15.40;11.82;;;11.80;99.90;;;;;;5135259;27;20042;-48
2023/05/08 05:34:08;;;;;;;17.30;11.68;;;11.60;99.90;;;;;;5134242;27;20153;-46
2023/05/08 05:36:34;;;;;;;13.30;11.88;;;11.60;99.90;;;;;;5134509;27;20043;-50
2023/05/08 05:38:59;;;;;;;13.68;12.30;;;11.80;99.90;;;;;;5133924;27;20038;-48
2023/05/08 05:41:25;;;;;;;14.15;11.88;;;11.80;99.90;;;;;;5136442;27;20089;-47
2023/05/08 05:43:51;;;;;;;13.80;12.38;;;11.70;99.90;;;;;;5134414;27;20039;-45
2023/05/08 05:46:17;;;;;;;12.70;11.40;;;12.00;99.90;;;;;;5134782;27;20487;-47
2023/05/08 05:48:43;;;;;;;13.07;11.70;;;12.30;99.90;;;;;;5134550;27;20527;-47
2023/05/08 05:51:09;;;;;;;16.17;11.38;;;12.30;99.90;;;;;;5134853;27;20058;-47
2023/05/08 05:53:34;;;;;;;13.48;11.20;;;12.50;99.90;;;;;;5135910;27;20031;-47
2023/05/08 05:56:00;;;;;;;12.48;10.93;;;12.40;99.90;;;;;;5134235;27;20130;-48
2023/05/08 05:58:27;;;;;;;11.70;10.50;;;12.60;99.90;;;;;;5133893;27;20050;-45
2023/05/08 06:00:53;;;;;;;11.20;9.88;;;13.10;99.90;;;;;;5134235;27;20043;-47
2023/05/08 06:03:18;;;;;;;11.88;10.38;;;13.50;99.90;;;;;;5134381;27;20038;-48
2023/05/08 06:05:46;;;;;;;11.48;10.27;;;13.70;99.90;;;;;;5132759;27;20035;-49
2023/05/08 06:08:12;;;;;;;13.85;11.05;;;13.70;99.90;;;;;;5133005;27;20042;-52
2023/05/08 06:10:38;;;;;;;11.52;9.40;;;14.40;99.90;;;;;;5133711;27;20078;-48
2023/05/08 06:13:03;;;;;;;12.18;10.32;;;14.00;99.90;;;;;;5133848;27;20119;-49
2023/05/08 06:15:29;;;;;;;11.65;10.25;;;13.80;99.90;;;;;;5114302;27;20624;-46
2023/05/08 06:17:55;;;;;;;11.18;9.98;;;13.40;99.90;;;;;;5132462;27;20035;-51
2023/05/08 06:20:21;;;;;;;11.77;10.23;;;13.60;99.90;;;;;;5113510;27;20046;-48
2023/05/08 06:22:47;;;;;;;13.23;10.02;;;13.30;99.90;;;;;;5134664;27;20042;-50
2023/05/08 06:25:13;;;;;;;10.63;9.52;;;13.00;99.90;;;;;;5133783;27;20035;-47
2023/05/08 06:27:38;;;;;;;11.68;9.77;;;12.90;99.90;;;;;;5131876;27;20041;-49
2023/05/08 06:30:09;;;;;;;11.63;10.43;;;12.90;99.90;;;;;;5131998;27;20078;-49
2023/05/08 06:32:35;;;;;;;12.30;10.18;;;12.90;99.90;;;;;;5114163;27;20471;-47
2023/05/08 06:35:01;;;;;;;11.45;10.27;;;13.10;99.90;;;;;;5133247;27;20436;-47
2023/05/08 06:37:27;;;;;;;11.15;9.85;;;12.90;99.90;;;;;;5116139;27;20043;-49
2023/05/08 06:39:52;;;;;;;11.52;10.27;;;13.20;99.90;;;;;;5132213;27;20095;-51
2023/05/08 06:42:18;;;;;;;12.35;10.32;;;13.20;99.90;;;;;;5113624;27;20554;-47
2023/05/08 06:44:44;;;;;;;11.88;10.55;;;13.10;99.90;;;;;;5133045;27;20046;-50
2023/05/08 06:47:10;;;;;;;10.98;9.85;;;13.20;99.90;;;;;;5133153;27;20047;-50
2023/05/08 06:49:36;;;;;;;13.20;10.00;;;13.10;99.90;;;;;;5132985;27;20039;-49
2023/05/08 06:52:02;;;;;;;11.40;10.20;;;13.40;99.90;;;;;;5134734;27;20089;-47
2023/05/08 06:54:28;;;;;;;11.27;9.73;;;13.10;99.90;;;;;;5117462;27;20141;-50
2023/05/08 06:56:53;;;;;;;10.88;9.77;;;13.40;99.90;;;;;;5132965;27;20030;-51
2023/05/08 06:59:22;;;;;;;10.70;9.60;;;13.60;99.90;;;;;;5133905;27;20034;-47
2023/05/08 07:01:49;;;;;;;10.57;9.48;;;13.80;99.90;;;;;;5132904;27;20049;-49
2023/05/08 07:04:14;;;;;;;10.80;9.70;;;13.80;99.90;;;;;;5134522;27;20050;-50
2023/05/08 07:06:40;;;;;;;10.50;9.20;;;13.70;99.90;;;;;;5132969;27;20256;-49
2023/05/08 07:09:06;;;;;;;10.98;9.55;;;13.80;99.90;;;;;;5132852;27;21104;-50
2023/05/08 07:11:32;;;;;;;10.40;9.30;;;13.80;99.90;;;;;;5133120;27;20047;-49
2023/05/08 07:13:57;;;;;;;12.43;10.05;;;12.60;99.90;;;;;;5132771;27;20467;-49
2023/05/08 07:16:23;;;;;;;10.98;9.88;;;13.80;99.90;;;;;;5132649;27;20050;-50
2023/05/08 07:18:49;;;;;;;10.32;9.32;;;13.90;99.90;;;;;;5131385;27;20039;-49
2023/05/08 07:21:16;;;;;;;12.82;9.90;;;14.00;99.90;;;;;;5131139;27;20042;-48
2023/05/08 07:23:42;;;;;;;10.82;9.13;;;14.20;99.90;;;;;;5134575;27;20038;-50
2023/05/08 07:26:08;;;;;;;10.95;9.82;;;14.20;99.90;;;;;;5132009;27;20066;-47
2023/05/08 07:28:34;;;;;;;12.60;9.63;;;14.30;99.90;;;;;;5133193;27;20049;-48
2023/05/08 07:31:04;;;;;;;11.07;9.98;;;14.20;99.90;;;;;;5131748;27;20043;-50
2023/05/08 07:33:30;;;;;;;11.20;9.85;;;14.30;99.90;;;;;;5132423;27;20839;-50
2023/05/08 07:35:55;;;;;;;11.55;9.70;;;14.30;99.90;;;;;;5131588;27;20154;-50
2023/05/08 07:38:21;;;;;;;11.27;10.07;;;14.50;99.90;;;;;;5132284;27;20043;-49
2023/05/08 07:40:47;;;;;;;11.63;9.68;;;14.50;99.90;;;;;;5135521;27;20038;-50
2023/05/08 07:43:13;;;;;;;11.30;10.00;;;14.80;99.90;;;;;;5118986;27;20057;-51
2023/05/08 07:45:39;;;;;;;11.07;9.90;;;14.80;99.90;;;;;;5136748;27;20088;-50
2023/05/08 07:48:06;;;;;;;11.43;9.82;;;14.90;99.90;;;;;;5116164;27;20042;-51
2023/05/08 07:50:31;;;;;;;11.25;9.68;;;15.20;99.90;;;;;;5135737;27;20427;-50
2023/05/08 07:52:57;;;;;;;10.85;9.70;;;15.30;99.90;;;;;;5136951;27;20095;-49
2023/05/08 07:55:23;;;;;;;10.80;9.70;;;15.40;99.90;;;;;;5135630;27;20125;-51
2023/05/08 07:57:49;;;;;;;11.95;9.52;;;15.60;99.90;;;;;;5137168;27;20050;-49
2023/05/08 08:00:15;;;;;;;10.88;9.77;;;15.90;99.90;;;;;;5135711;27;20046;-48
2023/05/08 08:02:42;;;;;;;10.70;9.60;;;16.10;99.90;;;;;;5136167;27;20042;-47
2023/05/08 08:05:08;;;;;;;9.63;8.70;;;16.80;99.90;;;;;;5135633;27;20467;-48
2023/05/08 08:07:34;;;;;;;10.80;9.70;;;17.00;99.90;;;;;;5117430;27;20042;-49
2023/05/08 08:10:02;;;;;;;12.73;9.35;;;17.10;99.90;;;;;;5135687;27;20034;-48
2023/05/08 08:12:28;;;;;;;10.88;9.73;;;17.40;99.90;;;;;;5137047;27;20599;-49
2023/05/08 08:14:54;;;;;;;11.30;9.45;;;17.40;99.90;;;;;;5137338;27;20043;-49
2023/05/08 08:17:19;;;;;;;11.52;8.95;;;17.40;99.90;;;;;;5137096;27;20049;-47
2023/05/08 08:19:45;;;;;;;11.23;9.52;;;17.40;99.90;;;;;;5136011;27;20436;-48
2023/05/08 08:22:11;;;;;;;13.10;9.38;;;17.10;99.90;;;;;;5137338;27;20117;-49
2023/05/08 08:24:37;;;;;;;9.80;8.80;;;16.80;99.90;;;;;;5137517;27;20045;-47
2023/05/08 08:27:03;;;;;;;10.35;9.10;;;17.00;99.90;;;;;;5136641;27;20046;-47
2023/05/08 08:29:29;;;;;;;11.55;9.38;;;16.40;99.90;;;;;;5137502;27;20035;-48
2023/05/08 08:31:55;;;;;;;10.70;9.48;;;16.70;99.90;;;;;;5136372;27;20976;-46
2023/05/08 08:34:21;;;;;;;12.15;10.07;;;16.60;99.90;;;;;;5134038;27;20039;-50
2023/05/08 08:36:46;;;;;;;10.65;9.55;;;16.70;99.90;;;;;;5118014;27;20111;-51
2023/05/08 08:39:12;;;;;;;14.70;11.07;;;16.70;99.90;;;;;;5135487;27;20093;-46
2023/05/08 08:41:39;;;;;;;11.77;10.25;;;16.40;99.90;;;;;;5136659;27;20069;-50
2023/05/08 08:44:05;;;;;;;11.73;9.68;;;16.70;99.90;;;;;;5136535;27;20068;-47
2023/05/08 08:46:34;;;;;;;11.55;9.52;;;16.60;99.90;;;;;;5117930;27;20752;-48
2023/05/08 08:49:04;;;;;;;12.48;11.18;;;16.40;99.90;;;;;;5136055;27;20043;-48
2023/05/08 08:51:44;;;;;;;13.50;9.98;;;17.00;99.90;;;;;;5134677;27;20050;-49
2023/05/08 08:54:12;;;;;;;11.32;10.23;;;16.30;99.90;;;;;;5136152;27;20147;-48
2023/05/08 08:56:41;;;;;;;12.90;9.98;;;16.60;99.90;;;;;;5134725;27;20499;-47
2023/05/08 08:59:09;;;;;;;10.73;9.65;;;16.50;99.90;;;;;;5136325;27;20387;-49
2023/05/08 09:01:38;;;;;;;11.15;10.05;;;16.80;99.90;;;;;;5134719;27;20038;-48
2023/05/08 09:04:04;;;;;;;11.80;10.60;;;16.90;99.90;;;;;;5117346;27;20058;-50
2023/05/08 09:06:34;;;;;;;11.63;10.43;;;17.10;99.90;;;;;;5135375;27;20042;-47
2023/05/08 09:09:01;;;;;;;11.07;9.38;;;17.30;99.90;;;;;;5115643;27;20487;-47
2023/05/08 09:11:27;;;;;;;12.05;10.57;;;17.80;99.90;;;;;;5113449;27;20082;-51
2023/05/08 09:13:57;;;;;;;12.68;9.90;;;18.30;99.90;;;;;;5097304;27;20655;-47
2023/05/08 09:16:23;;;;;;;10.98;9.75;;;18.70;99.90;;;;;;5133817;27;20039;-47
2023/05/08 09:18:50;;;;;;;11.75;10.55;;;19.30;99.90;;;;;;5134345;27;20585;-49
2023/05/08 09:21:15;;;;;;;11.57;10.15;;;19.80;99.90;;;;;;5133633;27;20046;-46
2023/05/08 09:24:03;;;;;;;12.35;9.65;;;19.70;99.90;;;;;;5134659;27;20045;-48
2023/05/08 09:26:32;;;;;;;12.80;11.40;;;19.90;99.90;;;;;;5132641;27;20038;-49
2023/05/08 09:29:09;;;;;;;11.93;10.57;;;19.90;99.90;;;;;;5133095;27;20098;-50
2023/05/08 09:31:40;;;;;;;13.18;10.10;;;20.10;99.90;;;;;;5134686;27;20043;-47
2023/05/08 09:34:08;;;;;;;13.10;10.63;;;20.00;99.90;;;;;;5133763;27;20051;-47
2023/05/08 09:36:34;;;;;;;12.70;10.20;;;20.00;99.90;;;;;;5115333;27;20045;-47
2023/05/08 09:39:01;;;;;;;11.93;10.65;;;19.90;99.90;;;;;;5132628;27;20031;-47
2023/05/08 09:41:27;;;;;;;16.27;10.57;;;19.60;99.90;;;;;;5133566;27;20031;-49
2023/05/08 09:44:03;;;;;;;10.77;9.68;;;20.00;99.90;;;;;;5134258;27;20038;-47
2023/05/08 09:46:29;;;;;;;12.15;10.48;;;19.90;99.90;;;;;;5135512;27;20873;-47
2023/05/08 09:48:57;;;;;;;13.40;10.38;;;19.80;99.90;;;;;;5133616;27;20046;-48
2023/05/08 09:51:25;;;;;;;12.02;10.88;;;19.70;99.90;;;;;;5115606;27;20043;-47
2023/05/08 09:53:56;;;;;;;12.27;10.45;;;19.60;99.90;;;;;;5135126;27;20039;-52
2023/05/08 09:56:35;;;;;;;10.98;9.82;;;19.30;99.90;;;;;;5134007;27;20117;-50
2023/05/08 09:59:02;;;;;;;12.20;11.00;;;19.30;99.90;;;;;;5134429;27;20074;-50
2023/05/08 10:01:34;;;;;;;11.82;10.63;;;19.40;99.90;;;;;;5132921;27;20050;-48
2023/05/08 10:04:00;;;;;;;;;;;19.50;99.90;;;;;;5114845;27;20046;-50
2023/05/08 10:06:27;;;;;;;11.73;10.52;;;19.80;99.90;;;;;;5133207;27;19923;-51
2023/05/08 10:09:14;;;;;;;12.48;11.18;;;19.80;99.90;;;;;;5132881;27;20066;-49
2023/05/08 10:11:50;;;;;;;12.23;11.02;;;20.00;99.90;;;;;;5132239;27;20038;-52
2023/05/08 10:14:17;;;;;;;12.48;10.40;;;20.10;99.90;;;;;;5114393;27;20363;-51
2023/05/08 10:16:44;;;;;;;11.27;9.68;;;20.30;99.90;;;;;;5131875;27;20062;-47
2023/05/08 10:19:15;;;;;;;12.30;11.10;;;20.50;99.90;;;;;;5132525;27;20945;-49
2023/05/08 10:21:51;;;;;;;12.13;10.82;;;20.40;99.90;;;;;;5132024;27;20046;-50
2023/05/08 10:24:26;;;;;;;10.40;9.30;;;20.50;99.90;;;;;;5132382;27;20034;-51
2023/05/08 10:27:06;;;;;;;12.70;11.50;;;20.50;99.90;;;;;;5131481;27;20055;-51
2023/05/08 10:29:39;;;;;;;12.70;11.27;;;20.60;99.90;;;;;;5132320;27;20043;-50
2023/05/08 10:32:13;;;;;;;11.07;9.90;;;20.70;99.90;;;;;;5131557;27;20503;-51
2023/05/08 10:34:41;;;;;;;12.77;11.48;;;20.80;99.90;;;;;;5096541;27;20051;-51
2023/05/08 10:37:10;;;;;;;12.05;10.52;;;21.00;99.90;;;;;;5131258;27;20050;-47
2023/05/08 10:39:37;;;;;;;13.98;12.10;;;21.80;99.90;;;;;;5112917;27;20046;-48
2023/05/08 10:42:03;;;;;;;13.45;11.00;;;21.20;99.90;;;;;;5130760;27;20050;-52
2023/05/08 10:44:30;;;;;;;13.25;11.32;;;21.30;99.90;;;;;;5131441;27;20049;-51
2023/05/08 10:47:03;;;;;;;14.27;12.10;;;21.50;99.90;;;;;;5130406;27;20047;-50
2023/05/08 10:50:00;;;;;;;15.75;11.90;;;21.30;99.90;;;;;;5131094;27;20811;-50
2023/05/08 10:52:41;;;;;;;13.40;12.00;;;21.30;99.90;;;;;;5091632;27;20111;-51
2023/05/08 10:55:21;;;;;;;13.68;12.02;;;21.50;99.90;;;;;;5112715;27;20063;-47
2023/05/08 10:58:05;;;;;;;14.02;12.52;;;21.50;99.90;;;;;;5112431;27;20118;-52
2023/05/08 11:00:32;;;;;;;13.55;12.15;;;21.80;99.90;;;;;;5111332;27;20406;-51
2023/05/08 11:03:07;;;;;;;13.90;12.50;;;22.10;99.90;;;;;;5112359;27;20471;-50
2023/05/08 11:05:45;;;;;;;13.45;12.05;;;22.20;99.90;;;;;;5110625;27;20044;-49
2023/05/08 11:08:16;;;;;;;13.63;12.27;;;22.10;99.90;;;;;;5112602;27;20043;-49
2023/05/08 11:10:48;;;;;;;13.48;11.40;;;22.30;99.90;;;;;;5111278;27;20510;-49
2023/05/08 11:13:14;;;;;;;15.15;12.70;;;22.20;99.90;;;;;;5110591;27;20046;-50
2023/05/08 11:15:41;;;;;;;13.68;12.32;;;22.40;99.90;;;;;;5111796;27;20045;-51
2023/05/08 11:18:10;;;;;;;13.88;12.43;;;22.40;99.90;;;;;;5110673;27;20051;-47
2023/05/08 11:20:56;;;;;;;13.23;11.93;;;22.10;99.90;;;;;;5110062;27;20046;-50
2023/05/08 11:23:30;;;;;;;14.35;12.82;;;22.70;99.90;;;;;;5113476;27;20379;-52
2023/05/08 11:26:11;;;;;;;13.95;12.52;;;22.50;99.90;;;;;;5111901;27;21582;-51
2023/05/08 11:28:55;;;;;;;14.60;12.10;;;22.70;99.90;;;;;;5111000;27;20039;-52
2023/05/08 11:31:22;;;;;;;13.65;12.25;;;22.70;99.90;;;;;;5110318;28;20157;-51
2023/05/08 11:33:48;;;;;;;14.75;13.25;;;22.80;99.90;;;;;;5109595;27;20213;-51
2023/05/08 11:36:21;;;;;;;12.52;11.32;;;22.90;99.90;;;;;;5110485;27;20080;-47
2023/05/08 11:39:08;;;;;;;13.80;11.40;;;23.00;99.90;;;;;;5110255;28;20096;-51
2023/05/08 11:41:34;;;;;;;14.82;13.32;;;23.10;99.90;;;;;;5109417;28;20140;-50
2023/05/08 11:44:03;;;;;;;14.25;12.85;;;23.10;99.90;;;;;;5108528;28;20051;-48
2023/05/08 11:46:53;;;;;;;13.88;12.38;;;23.20;99.90;;;;;;5108708;28;20082;-49
2023/05/08 11:49:24;;;;;;;13.02;11.63;;;23.50;99.90;;;;;;5110168;28;20085;-49
2023/05/08 11:51:56;;;;;;;14.30;12.75;;;23.70;99.90;;;;;;5098736;28;20610;-51
2023/05/08 11:54:24;;;;;;;14.02;12.50;;;23.50;99.90;;;;;;5092110;28;20046;-46
2023/05/08 11:56:54;;;;;;;13.50;12.10;;;23.50;99.90;;;;;;5089210;28;20036;-50
2023/05/08 11:59:20;;;;;;;15.68;14.02;;;23.30;99.90;;;;;;5089023;28;20066;-47
2023/05/08 12:01:49;;;;;;;13.85;12.13;;;23.10;99.90;;;;;;5091254;28;20464;-48
2023/05/08 12:04:15;;;;;;;14.45;12.48;;;22.80;99.90;;;;;;5089374;28;20128;-49
2023/05/08 12:06:42;;;;;;;15.35;13.23;;;22.50;99.90;;;;;;5090638;28;20083;-52
2023/05/08 12:09:16;;;;;;;15.38;13.88;;;22.40;99.90;;;;;;5091574;28;20042;-49
2023/05/08 12:11:44;;;;;;;16.92;12.80;;;21.90;99.90;;;;;;5091699;28;20532;-49
2023/05/08 12:14:11;;;;;;;13.82;12.43;;;22.20;99.90;;;;;;5090955;28;20215;-52
2023/05/08 12:16:38;;;;;;;15.18;13.52;;;22.20;99.90;;;;;;5091130;28;20050;-48
2023/05/08 12:19:11;;;;;;;13.48;11.95;;;22.10;99.90;;;;;;5090450;28;20083;-52
2023/05/08 12:21:38;;;;;;;18.05;12.50;;;22.30;99.90;;;;;;5091189;28;20066;-49
2023/05/08 12:24:10;;;;;;;15.07;13.57;;;22.30;99.90;;;;;;5091777;28;20186;-48
2023/05/08 12:26:37;;;;;;;14.77;13.27;;;22.30;99.90;;;;;;5092041;28;20044;-48
2023/05/08 12:29:07;;;;;;;15.63;12.63;;;22.30;99.90;;;;;;5090719;28;20040;-47
2023/05/08 12:31:36;;;;;;;14.30;12.50;;;22.60;99.90;;;;;;5092065;28;20067;-50
2023/05/08 12:34:03;;;;;;;14.68;13.07;;;22.70;99.90;;;;;;5091287;28;20625;-47
2023/05/08 12:36:33;;;;;;;14.13;12.05;;;22.80;99.90;;;;;;5094265;28;20044;-47
2023/05/08 12:39:12;;;;;;;14.05;12.65;;;22.50;99.90;;;;;;5094946;28;20054;-46
2023/05/08 12:41:56;;;;;;;13.65;12.25;;;22.40;99.90;;;;;;5092769;28;20121;-48